createdAt,value
2023-05-19T00:01:49.159Z,16340.28
2023-05-19T00:04:16.579Z,14540.19
2023-05-19T00:06:44.798Z,13254.94
2023-05-19T00:09:12.639Z,12483.97
2023-05-19T00:11:40.317Z,11713.16
2023-05-19T00:14:09.554Z,10942.53
2023-05-19T00:16:40.477Z,9658.44
2023-05-19T00:19:10.246Z,9144.94
2023-05-19T00:21:38.833Z,8374.81
2023-05-19T00:24:07.614Z,7861.47
2023-05-19T00:26:34.378Z,7091.56
2023-05-19T00:29:00.949Z,6578.41
2023-05-19T00:31:27.682Z,6321.84
2023-05-19T00:33:54.377Z,5808.78
2023-05-19T00:36:21.074Z,5808.78
2023-05-19T00:38:47.577Z,4782.84
2023-05-19T00:41:14.138Z,4269.97
2023-05-19T00:43:40.628Z,3500.81
2023-05-19T00:46:07.563Z,3500.81
2023-05-19T00:48:34.218Z,2475.50
2023-05-19T00:51:05.164Z,2475.50
2023-05-19T00:53:33.526Z,2219.22
2023-05-19T00:56:00.813Z,1706.69
2023-05-19T00:58:30.305Z,938.03
2023-05-19T01:01:03.512Z,425.69
2023-05-19T01:03:32.169Z,681.84
2023-05-19T01:06:01.689Z,169.53
2023-05-19T01:08:31.701Z,169.53
2023-05-19T01:10:58.403Z,-86.59
2023-05-19T01:13:25.640Z,-342.72
2023-05-19T01:15:59.391Z,-342.72
2023-05-19T01:18:41.872Z,-598.81
2023-05-19T01:21:23.472Z,-598.81
2023-05-19T01:24:14.345Z,-598.81
2023-05-19T01:26:58.261Z,-1110.97
2023-05-19T01:29:37.037Z,-1110.97
2023-05-19T01:32:06.406Z,-1367.03
2023-05-19T01:34:38.891Z,-1367.03
2023-05-19T01:37:05.624Z,-1110.97
2023-05-19T01:39:33.384Z,-1623.06
2023-05-19T01:42:01.684Z,-1623.06
2023-05-19T01:44:29.200Z,-1367.03
2023-05-19T01:46:55.701Z,-1110.97
2023-05-19T01:49:22.214Z,-1367.03
2023-05-19T01:51:49.430Z,-1623.06
2023-05-19T01:54:15.963Z,-1623.06
2023-05-19T01:56:53.716Z,-1623.06
2023-05-19T01:59:55.543Z,-1879.06
2023-05-19T02:02:46.985Z,-2391.03
2023-05-19T02:05:28.638Z,-3158.88
2023-05-19T02:08:17.108Z,-3414.81
2023-05-19T02:10:50.340Z,-3414.81
2023-05-19T02:13:20.501Z,-3926.56
2023-05-19T02:15:49.024Z,-3926.56
2023-05-19T02:18:18.080Z,-3926.56
2023-05-19T02:20:44.757Z,-3926.56
2023-05-19T02:23:11.202Z,-4182.44
2023-05-19T02:25:38.176Z,-4438.28
2023-05-19T02:28:04.887Z,-4438.28
2023-05-19T02:30:32.155Z,-4694.09
2023-05-19T02:32:58.953Z,-4438.28
2023-05-19T02:35:25.451Z,-4182.44
2023-05-19T02:37:52.443Z,-4438.28
2023-05-19T02:40:19.109Z,-4694.09
2023-05-19T02:42:46.144Z,-4949.91
2023-05-19T02:45:12.610Z,-4949.91
2023-05-19T02:47:39.194Z,-5205.72
2023-05-19T02:50:06.271Z,-5461.50
2023-05-19T02:52:33.156Z,-5717.25
2023-05-19T02:55:00.131Z,-5717.25
2023-05-19T02:57:27.029Z,-5973.00
2023-05-19T02:59:53.486Z,-5973.00
2023-05-19T03:02:20.012Z,-6228.72
2023-05-19T03:04:46.649Z,-6484.41
2023-05-19T03:07:16.378Z,-6484.41
2023-05-19T03:09:42.848Z,-6740.13
2023-05-19T03:12:09.448Z,-6740.13
2023-05-19T03:14:39.290Z,-6740.13
2023-05-19T03:17:08.142Z,-6484.41
2023-05-19T03:19:34.932Z,-6484.41
2023-05-19T03:22:01.522Z,-6484.41
2023-05-19T03:24:28.048Z,-6484.41
2023-05-19T03:26:54.587Z,-6484.41
2023-05-19T03:29:21.547Z,-6484.41
2023-05-19T03:31:48.025Z,-6484.41
2023-05-19T03:34:14.612Z,-6484.41
2023-05-19T03:36:41.025Z,-6740.13
2023-05-19T03:39:07.560Z,-6740.13
2023-05-19T03:41:34.144Z,-6740.13
2023-05-19T03:44:06.703Z,-6740.13
2023-05-19T03:46:40.338Z,-6740.13
2023-05-19T03:49:07.563Z,-6740.13
2023-05-19T03:51:34.810Z,-6740.13
2023-05-19T03:54:04.529Z,-6484.41
2023-05-19T03:56:31.197Z,-6484.41
2023-05-19T03:59:12.817Z,-6740.13
2023-05-19T04:01:42.357Z,-6484.41
2023-05-19T04:04:10.994Z,-6484.41
2023-05-19T04:06:48.818Z,-6484.41
2023-05-19T04:09:16.494Z,-6484.41
2023-05-19T04:11:43.349Z,-6228.72
2023-05-19T04:14:10.018Z,-5973.00
2023-05-19T04:16:36.925Z,-5973.00
2023-05-19T04:19:07.868Z,-5717.25
2023-05-19T04:21:34.448Z,-5461.50
2023-05-19T04:24:06.559Z,-5461.50
2023-05-19T04:26:34.535Z,-5205.72
2023-05-19T04:29:04.480Z,-4949.91
2023-05-19T04:31:34.345Z,-4694.09
2023-05-19T04:34:03.433Z,-4438.28
2023-05-19T04:36:29.990Z,-4438.28
2023-05-19T04:39:02.351Z,-4182.44
2023-05-19T04:41:28.937Z,-3926.56
2023-05-19T04:43:58.877Z,-3670.69
2023-05-19T04:46:26.567Z,-3414.81
2023-05-19T04:48:57.334Z,-2902.97
2023-05-19T04:51:30.345Z,-2647.00
2023-05-19T04:54:01.568Z,-2135.06
2023-05-19T04:56:28.936Z,-1623.06
2023-05-19T04:58:55.599Z,-854.91
2023-05-19T05:01:25.879Z,-598.81
2023-05-19T05:03:55.856Z,169.53
2023-05-19T05:06:22.552Z,425.69
2023-05-19T05:08:49.519Z,681.84
2023-05-19T05:11:16.775Z,1194.22
2023-05-19T05:13:47.322Z,1450.44
2023-05-19T05:16:14.786Z,2475.50
2023-05-19T05:18:44.387Z,3500.81
2023-05-19T05:21:12.051Z,3500.81
2023-05-19T05:23:38.868Z,2988.13
2023-05-19T05:26:14.101Z,2988.13
2023-05-19T05:28:41.596Z,4269.97
2023-05-19T05:31:08.116Z,4782.84
2023-05-19T05:33:34.712Z,6578.41
2023-05-19T05:36:01.280Z,7091.56
2023-05-19T05:38:27.788Z,8888.22
2023-05-19T05:40:54.380Z,9915.22
2023-05-19T05:43:20.958Z,10172.03
2023-05-19T05:45:49.614Z,11713.16
2023-05-19T05:48:16.609Z,11456.28
2023-05-19T05:50:45.456Z,11456.28
2023-05-19T05:53:18.919Z,12997.94
2023-05-19T05:55:49.222Z,14797.31
2023-05-19T05:58:21.238Z,17112.00
2023-05-19T06:00:51.410Z,18398.53
2023-05-19T06:03:18.004Z,20715.41
2023-05-19T06:05:47.903Z,21230.44
2023-05-19T06:08:14.395Z,24322.13
2023-05-19T06:10:44.553Z,25355.25
2023-05-19T06:13:13.259Z,26378.56
2023-05-19T06:15:46.000Z,24322.13
2023-05-19T06:18:12.585Z,25961.56
2023-05-19T06:20:42.076Z,27575.47
2023-05-19T06:23:12.412Z,29248.53
2023-05-19T06:25:38.957Z,30028.84
2023-05-19T06:28:06.009Z,31319.66
2023-05-19T06:30:32.853Z,31529.47
2023-05-19T06:32:59.598Z,31325.72
2023-05-19T06:35:26.165Z,31460.88
2023-05-19T06:37:56.807Z,31202.66
2023-05-19T06:40:24.052Z,30454.38
2023-05-19T06:42:55.852Z,30492.69
2023-05-19T06:45:22.518Z,30198.25
2023-05-19T06:47:49.378Z,30218.41
2023-05-19T06:50:16.226Z,29728.41
2023-05-19T06:52:44.431Z,29393.69
2023-05-19T06:55:11.879Z,29702.19
2023-05-19T06:57:38.754Z,30061.13
2023-05-19T07:00:10.463Z,30057.09
2023-05-19T07:02:37.072Z,29921.97
2023-05-19T07:05:06.085Z,29996.59
2023-05-19T07:07:32.518Z,29557.00
2023-05-19T07:09:59.017Z,29754.63
2023-05-19T07:12:26.572Z,29563.06
2023-05-19T07:14:55.222Z,29371.50
2023-05-19T07:17:21.709Z,29601.38
2023-05-19T07:19:48.340Z,29615.47
2023-05-19T07:22:14.921Z,29573.13
2023-05-19T07:24:44.789Z,29478.38
2023-05-19T07:27:11.267Z,29831.25
2023-05-19T07:29:38.783Z,30008.69
2023-05-19T07:32:05.813Z,29661.84
2023-05-19T07:34:32.296Z,29835.28
2023-05-19T07:36:58.812Z,29907.88
2023-05-19T07:39:29.618Z,29819.13
2023-05-19T07:41:57.202Z,30040.94
2023-05-19T07:44:23.795Z,30282.94
2023-05-19T07:46:50.357Z,30811.34
2023-05-19T07:49:24.089Z,30815.38
2023-05-19T07:51:57.274Z,30843.63
2023-05-19T07:54:23.782Z,31418.50
2023-05-19T07:56:51.184Z,31370.09
2023-05-19T07:59:20.797Z,31977.34
2023-05-19T08:01:48.165Z,31898.66
2023-05-19T08:04:15.996Z,32566.50
2023-05-19T08:06:44.538Z,33006.44
2023-05-19T08:09:11.931Z,33113.38
2023-05-19T08:11:38.466Z,33494.84
2023-05-19T08:14:05.070Z,34058.00
2023-05-19T08:16:31.768Z,35041.19
2023-05-19T08:19:01.068Z,34419.34
2023-05-19T08:21:27.809Z,36685.13
2023-05-19T08:23:54.358Z,38089.25
2023-05-19T08:26:21.893Z,38289.31
2023-05-19T08:28:48.503Z,37802.31
2023-05-19T08:31:14.987Z,39398.91
2023-05-19T08:33:41.813Z,41109.34
2023-05-19T08:36:08.350Z,41356.06
2023-05-19T08:38:34.810Z,40415.78
2023-05-19T08:41:01.681Z,41350.00
2023-05-19T08:43:28.281Z,44198.56
2023-05-19T08:45:55.597Z,45892.88
2023-05-19T08:48:22.468Z,44413.09
2023-05-19T08:51:05.859Z,43459.91
2023-05-19T08:53:38.057Z,46636.03
2023-05-19T08:56:11.274Z,43789.75
2023-05-19T08:58:43.653Z,55917.81
2023-05-19T09:01:20.370Z,56283.19
2023-05-19T09:03:49.717Z,50297.06
2023-05-19T09:06:16.613Z,52281.97
2023-05-19T09:08:47.108Z,48829.81
2023-05-19T09:11:13.786Z,50432.88
2023-05-19T09:13:40.352Z,54347.00
2023-05-19T09:16:08.162Z,52194.78
2023-05-19T09:18:40.882Z,47041.06
2023-05-19T09:21:10.200Z,47006.63
2023-05-19T09:23:36.857Z,45170.13
2023-05-19T09:26:08.214Z,46259.38
2023-05-19T09:28:36.480Z,44736.94
2023-05-19T09:31:08.484Z,51081.59
2023-05-19T09:33:38.634Z,49127.69
2023-05-19T09:36:06.332Z,52213.03
2023-05-19T09:38:33.033Z,64090.31
2023-05-19T09:41:00.791Z,66387.38
2023-05-19T09:43:29.458Z,67592.41
2023-05-19T09:46:01.159Z,64061.81
2023-05-19T09:48:27.985Z,58614.38
2023-05-19T09:51:00.301Z,64171.66
2023-05-19T09:53:31.250Z,66214.41
2023-05-19T09:55:58.746Z,68404.78
2023-05-19T09:58:27.967Z,64293.72
2023-05-19T10:00:57.091Z,63685.53
2023-05-19T10:03:25.187Z,64224.53
2023-05-19T10:05:53.815Z,64102.50
2023-05-19T10:08:21.847Z,65563.22
2023-05-19T10:10:48.544Z,65892.88
2023-05-19T10:13:19.525Z,73074.56
2023-05-19T10:18:31.129Z,74379.50
2023-05-19T10:21:00.670Z,76468.28
2023-05-19T10:23:27.378Z,74379.50
2023-05-19T10:25:59.820Z,70916.25
2023-05-19T10:28:36.862Z,80126.25
2023-05-19T10:31:07.738Z,79864.84
2023-05-19T10:33:58.973Z,79864.84
2023-05-19T10:36:44.857Z,75684.88
2023-05-19T10:39:37.477Z,78558.13
2023-05-19T10:42:16.000Z,71209.69
2023-05-19T10:45:03.278Z,69920.03
2023-05-19T10:47:30.371Z,67203.59
2023-05-19T10:49:57.107Z,65074.91
2023-05-19T10:52:26.209Z,72030.94
2023-05-19T10:54:54.936Z,80649.09
2023-05-19T10:57:36.931Z,80649.09
2023-05-19T11:00:26.487Z,82218.03
2023-05-19T11:02:56.431Z,85357.72
2023-05-19T11:05:29.013Z,85357.72
2023-05-19T11:08:12.098Z,83787.56
2023-05-19T11:10:39.010Z,83525.94
2023-05-19T11:13:06.455Z,83525.94
2023-05-19T11:15:38.865Z,82479.56
2023-05-19T11:18:07.705Z,81956.50
2023-05-19T11:20:38.893Z,81433.47
2023-05-19T11:23:07.250Z,82479.56
2023-05-19T11:25:51.086Z,83264.31
2023-05-19T11:28:28.208Z,84049.22
2023-05-19T11:30:57.918Z,77513.06
2023-05-19T11:33:34.633Z,82479.56
2023-05-19T11:36:04.380Z,83002.72
2023-05-19T11:38:34.809Z,78035.56
2023-05-19T11:41:03.655Z,79342.13
2023-05-19T11:43:31.028Z,80387.66
2023-05-19T11:45:57.700Z,77774.31
2023-05-19T11:48:34.430Z,80649.09
2023-05-19T11:51:01.074Z,83525.94
2023-05-19T11:53:36.045Z,77513.06
2023-05-19T11:56:09.193Z,76729.44
2023-05-19T11:58:37.336Z,77251.84
2023-05-19T12:01:04.774Z,72030.94
2023-05-19T12:03:33.093Z,76207.13
2023-05-19T12:06:17.546Z,76990.66
2023-05-19T12:08:45.639Z,76990.66
2023-05-19T12:11:12.111Z,61727.44
2023-05-19T12:13:42.907Z,67598.53
2023-05-19T12:16:09.595Z,69162.34
2023-05-19T12:18:40.375Z,66417.91
2023-05-19T12:21:06.980Z,70726.78
2023-05-19T12:23:34.952Z,69944.47
2023-05-19T12:26:14.792Z,67859.13
2023-05-19T12:28:47.136Z,69162.34
2023-05-19T12:31:13.680Z,55349.50
2023-05-19T12:33:40.110Z,52298.19
2023-05-19T12:36:07.680Z,51322.84
2023-05-19T12:38:37.355Z,48378.00
2023-05-19T12:41:05.450Z,48426.63
2023-05-19T12:43:33.372Z,48317.22
2023-05-19T12:46:12.512Z,48187.56
2023-05-19T12:48:46.736Z,47960.66
2023-05-19T12:51:19.493Z,47555.53
2023-05-19T12:53:47.452Z,48712.28
2023-05-19T12:56:15.355Z,48264.53
2023-05-19T12:58:42.774Z,49976.81
2023-05-19T13:01:18.828Z,49289.78
2023-05-19T13:03:46.008Z,48292.91
2023-05-19T13:06:12.712Z,49393.16
2023-05-19T13:08:42.082Z,47916.09
2023-05-19T13:11:12.706Z,50672.09
2023-05-19T13:13:39.275Z,51535.75
2023-05-19T13:16:08.194Z,48823.72
2023-05-19T13:18:37.794Z,48276.69
2023-05-19T13:21:13.880Z,48149.06
2023-05-19T13:23:41.570Z,47851.28
2023-05-19T13:26:11.573Z,47640.59
2023-05-19T13:28:38.019Z,48134.88
2023-05-19T13:31:05.561Z,48888.56
2023-05-19T13:33:32.180Z,48078.16
2023-05-19T13:36:03.033Z,48179.44
2023-05-19T13:38:30.612Z,47914.06
2023-05-19T13:40:57.236Z,48009.28
2023-05-19T13:43:23.686Z,47624.41
2023-05-19T13:45:50.115Z,47800.63
2023-05-19T13:48:16.660Z,48758.91
2023-05-19T13:50:43.269Z,47948.50
2023-05-19T13:53:11.294Z,47758.09
2023-05-19T13:55:39.157Z,48369.88
2023-05-19T13:58:05.737Z,47747.97
2023-05-19T14:00:38.415Z,48149.06
2023-05-19T14:03:16.124Z,47762.13
2023-05-19T14:05:43.439Z,48694.06
2023-05-19T14:08:19.040Z,47928.25
2023-05-19T14:10:50.961Z,48045.75
2023-05-19T14:13:32.522Z,47632.50
2023-05-19T14:16:01.179Z,47980.91
2023-05-19T14:18:27.663Z,47454.25
2023-05-19T14:20:54.135Z,47930.28
2023-05-19T14:23:23.852Z,48187.56
2023-05-19T14:25:50.336Z,48159.19
2023-05-19T14:28:19.794Z,47583.88
2023-05-19T14:30:48.061Z,48258.47
2023-05-19T14:33:14.767Z,48155.13
2023-05-19T14:35:41.242Z,47997.13
2023-05-19T14:38:14.716Z,48471.19
2023-05-19T14:40:48.489Z,48179.44
2023-05-19T14:43:14.981Z,48341.53
2023-05-19T14:45:44.659Z,48136.91
2023-05-19T14:48:11.964Z,48953.41
2023-05-19T14:50:39.826Z,49340.47
2023-05-19T14:53:06.287Z,50343.69
2023-05-19T14:55:32.797Z,49002.03
2023-05-19T14:57:59.322Z,47847.22
2023-05-19T15:00:28.439Z,48159.19
2023-05-19T15:02:56.132Z,47806.69
2023-05-19T15:05:24.256Z,47717.56
2023-05-19T15:07:51.453Z,48240.22
2023-05-19T15:10:22.474Z,48019.41
2023-05-19T15:12:50.265Z,48045.75
2023-05-19T15:15:17.294Z,47875.56
2023-05-19T15:17:45.820Z,47875.56
2023-05-19T15:20:12.541Z,49358.69
2023-05-19T15:22:39.136Z,48325.31
2023-05-19T15:25:11.714Z,47591.97
2023-05-19T15:27:38.322Z,48272.63
2023-05-19T15:30:07.258Z,48349.63
2023-05-19T15:32:35.847Z,48246.31
2023-05-19T15:35:02.433Z,49178.34
2023-05-19T15:37:28.957Z,48831.84
2023-05-19T15:40:03.628Z,49135.78
2023-05-19T15:42:30.232Z,49257.38
2023-05-19T15:44:56.829Z,48187.56
2023-05-19T15:47:23.396Z,48122.72
2023-05-19T15:49:49.869Z,47628.44
2023-05-19T15:52:16.614Z,47573.75
2023-05-19T15:54:43.386Z,48576.53
2023-05-19T15:57:09.985Z,48256.44
2023-05-19T15:59:37.590Z,48104.50
2023-05-19T16:02:04.330Z,48017.38
2023-05-19T16:04:31.182Z,48165.28
2023-05-19T16:06:58.085Z,48228.06
2023-05-19T16:09:28.675Z,48246.31
2023-05-19T16:11:56.387Z,47802.66
2023-05-19T16:14:37.073Z,47555.53
2023-05-19T16:17:04.848Z,47835.06
2023-05-19T16:19:31.989Z,48726.47
2023-05-19T16:21:58.870Z,48286.81
2023-05-19T16:24:26.492Z,48130.81
2023-05-19T16:26:53.671Z,48118.66
2023-05-19T16:29:20.387Z,48414.47
2023-05-19T16:31:47.108Z,48219.97
2023-05-19T16:34:14.304Z,48051.81
2023-05-19T16:36:50.740Z,47662.88
2023-05-19T16:39:17.240Z,48185.53
2023-05-19T16:41:43.705Z,48333.41
2023-05-19T16:44:18.402Z,48738.63
2023-05-19T16:46:44.898Z,49216.84
2023-05-19T16:49:11.463Z,48900.72
2023-05-19T16:51:37.889Z,49713.34
2023-05-19T16:54:05.556Z,51308.66
2023-05-19T16:56:32.237Z,51316.78
2023-05-19T16:58:58.936Z,50949.81
2023-05-19T17:01:25.632Z,50242.34
2023-05-19T17:03:52.201Z,52229.25
2023-05-19T17:06:25.393Z,52405.69
2023-05-19T17:08:51.845Z,51730.41
2023-05-19T17:11:18.436Z,51014.69
2023-05-19T17:13:46.384Z,51515.47
2023-05-19T17:16:13.115Z,50696.41
2023-05-19T17:18:42.060Z,50084.25
2023-05-19T17:21:08.647Z,50838.31
2023-05-19T17:23:36.066Z,50672.09
2023-05-19T17:26:02.662Z,50124.78
2023-05-19T17:28:38.091Z,51900.75
2023-05-19T17:33:56.371Z,52628.78
2023-05-19T17:36:22.938Z,52614.59
2023-05-19T17:38:50.923Z,52166.38
2023-05-19T17:41:17.466Z,53369.13
2023-05-19T17:43:45.382Z,51393.81
2023-05-19T17:46:12.188Z,50258.56
2023-05-19T17:48:39.955Z,49794.41
2023-05-19T17:51:09.519Z,50084.25
2023-05-19T17:53:36.715Z,50047.75
2023-05-19T17:56:06.619Z,51047.13
2023-05-19T17:58:33.691Z,50436.94
2023-05-19T18:01:00.218Z,49772.13
2023-05-19T18:03:27.097Z,51641.19
2023-05-19T18:05:54.831Z,50771.41
2023-05-19T18:08:22.713Z,50761.28
2023-05-19T18:10:52.846Z,50830.19
2023-05-19T18:13:19.449Z,51091.72
2023-05-19T18:15:46.294Z,50572.75
2023-05-19T18:18:12.941Z,51211.34
2023-05-19T18:20:44.410Z,50813.97
2023-05-19T18:23:11.437Z,51353.28
2023-05-19T18:25:51.717Z,51227.56
2023-05-19T18:28:18.301Z,51639.16
2023-05-19T18:30:45.063Z,51032.94
2023-05-19T18:33:12.036Z,51276.22
2023-05-19T18:35:38.620Z,51689.84
2023-05-19T18:38:05.170Z,51620.91
2023-05-19T18:40:35.693Z,51608.75
2023-05-19T18:43:02.359Z,51973.75
2023-05-19T18:45:28.850Z,52174.50
2023-05-19T18:48:01.577Z,51908.84
2023-05-19T18:50:28.327Z,51854.09
2023-05-19T18:52:56.019Z,51683.75
2023-05-19T18:55:23.804Z,52079.19
2023-05-19T18:57:51.488Z,51951.44
2023-05-19T19:00:18.725Z,51746.63
2023-05-19T19:02:48.892Z,51539.81
2023-05-19T19:05:16.571Z,51300.56
2023-05-19T19:07:44.758Z,51225.53
2023-05-19T19:10:11.697Z,50990.34
2023-05-19T19:12:38.966Z,50931.56
2023-05-19T19:15:06.096Z,51022.78
2023-05-19T19:17:32.519Z,50789.66
2023-05-19T19:19:59.037Z,50574.78
2023-05-19T19:22:26.651Z,50704.50
2023-05-19T19:24:53.233Z,50451.13
2023-05-19T19:27:24.762Z,50315.31
2023-05-19T19:29:51.280Z,50104.50
2023-05-19T19:32:17.768Z,49727.53
2023-05-19T19:34:45.499Z,49079.03
2023-05-19T19:37:18.125Z,49306.00
2023-05-19T19:39:44.779Z,49087.16
2023-05-19T19:42:11.716Z,48228.06
2023-05-19T19:44:38.346Z,48534.00
2023-05-19T19:47:07.361Z,47733.78
2023-05-19T19:49:34.073Z,47600.09
2023-05-19T19:52:00.903Z,47610.22
2023-05-19T19:54:28.688Z,46929.69
2023-05-19T19:56:58.575Z,47328.66
2023-05-19T19:59:26.964Z,47600.09
2023-05-19T20:01:53.727Z,46883.09
2023-05-19T20:04:20.787Z,46891.19
2023-05-19T20:06:47.394Z,46307.97
2023-05-19T20:09:14.625Z,46433.53
2023-05-19T20:11:41.248Z,45842.25
2023-05-19T20:14:08.447Z,45842.25
2023-05-19T20:16:42.311Z,45714.72
2023-05-19T20:19:09.535Z,45328.03
2023-05-19T20:21:37.693Z,45133.69
2023-05-19T20:24:04.591Z,45083.06
2023-05-19T20:26:31.459Z,44062.97
2023-05-19T20:28:59.802Z,43239.38
2023-05-19T20:31:26.611Z,43378.97
2023-05-19T20:33:53.216Z,43534.78
2023-05-19T20:36:19.827Z,43312.22
2023-05-19T20:38:47.921Z,43020.84
2023-05-19T20:41:14.864Z,42701.19
2023-05-19T20:43:41.437Z,42966.22
2023-05-19T20:46:08.028Z,42159.03
2023-05-19T20:48:34.504Z,42110.50
2023-05-19T20:51:01.320Z,41730.25
2023-05-19T20:53:27.878Z,40270.22
2023-05-19T20:55:54.473Z,38875.38
2023-05-19T20:58:21.346Z,37707.38
2023-05-19T21:00:53.436Z,36810.34
2023-05-19T21:03:21.516Z,35986.25
2023-05-19T21:05:49.799Z,35113.88
2023-05-19T21:08:16.443Z,34635.38
2023-05-19T21:10:42.915Z,34136.72
2023-05-19T21:13:12.109Z,33438.31
2023-05-19T21:15:38.634Z,32929.75
2023-05-19T21:18:07.235Z,32600.81
2023-05-19T21:20:34.228Z,32271.91
2023-05-19T21:23:01.034Z,32017.69
2023-05-19T21:25:27.919Z,31771.56
2023-05-19T21:27:56.003Z,31616.22
2023-05-19T21:30:23.607Z,31521.41
2023-05-19T21:32:50.424Z,31307.56
2023-05-19T21:35:17.165Z,31238.97
2023-05-19T21:37:43.659Z,31025.16
2023-05-19T21:40:10.593Z,30839.59
2023-05-19T21:42:37.060Z,30593.53
2023-05-19T21:45:03.885Z,30454.38
2023-05-19T21:47:30.774Z,30410.00
2023-05-19T21:49:57.489Z,30327.31
2023-05-19T21:52:24.530Z,30270.84
2023-05-19T21:54:52.013Z,30137.75
2023-05-19T21:57:18.746Z,30008.69
2023-05-19T21:59:45.281Z,29877.63
2023-05-19T22:02:11.798Z,29766.72
2023-05-19T22:04:38.644Z,29730.41
2023-05-19T22:07:08.263Z,29613.47
2023-05-19T22:09:34.784Z,29472.31
2023-05-19T22:12:01.366Z,29415.88
2023-05-19T22:14:27.873Z,29381.59
2023-05-19T22:16:54.468Z,29315.06
2023-05-19T22:19:21.122Z,29270.69
2023-05-19T22:21:48.272Z,29238.44
2023-05-19T22:24:16.126Z,29149.72
2023-05-19T22:26:42.982Z,29077.16
2023-05-19T22:29:15.097Z,29028.78
2023-05-19T22:31:42.101Z,28998.53
2023-05-19T22:34:08.660Z,28964.25
2023-05-19T22:36:35.150Z,28786.84
2023-05-19T22:39:01.602Z,28512.69
2023-05-19T22:41:28.074Z,28474.41
2023-05-19T22:43:54.531Z,28424.00
2023-05-19T22:46:21.023Z,28391.75
2023-05-19T22:48:48.494Z,28327.25
2023-05-19T22:51:15.163Z,28307.09
2023-05-19T22:53:42.605Z,28236.53
2023-05-19T22:56:08.982Z,28202.28
2023-05-19T22:58:35.595Z,28198.25
2023-05-19T23:01:02.136Z,28149.88
2023-05-19T23:03:28.625Z,27815.31
2023-05-19T23:05:55.322Z,27791.13
2023-05-19T23:08:21.849Z,27730.66
2023-05-19T23:10:48.621Z,27650.03
2023-05-19T23:13:15.507Z,27652.06
2023-05-19T23:15:41.993Z,27631.91
2023-05-19T23:18:11.665Z,27601.66
2023-05-19T23:20:38.211Z,27513.00
2023-05-19T23:23:04.947Z,27563.38
2023-05-19T23:25:32.036Z,27476.72
2023-05-19T23:27:58.820Z,27484.78
2023-05-19T23:30:25.350Z,27492.84
2023-05-19T23:32:52.948Z,27519.03
2023-05-19T23:35:20.517Z,27492.84
2023-05-19T23:37:47.041Z,27436.41
2023-05-19T23:40:14.011Z,27617.78
2023-05-19T23:42:40.577Z,27633.91
2023-05-19T23:45:07.844Z,27621.81
2023-05-19T23:47:34.361Z,27513.00
2023-05-19T23:50:01.208Z,27492.84
2023-05-19T23:52:27.734Z,27519.03
2023-05-19T23:54:54.211Z,27545.25
2023-05-19T23:57:20.724Z,27508.97
2023-05-19T23:59:47.341Z,27494.88
